sensor_id;sensor_type;location;lat;lon;timestamp;temperature;humidity
29713;DHT22;16623;53.632;10.016;2023-02-22T00:00:15;8.60;99.90
29713;DHT22;16623;53.632;10.016;2023-02-22T00:02:46;8.60;99.90
29713;DHT22;16623;53.632;10.016;2023-02-22T00:05:13;8.50;99.90
29713;DHT22;16623;53.632;10.016;2023-02-22T00:07:41;8.50;99.90
29713;DHT22;16623;53.632;10.016;2023-02-22T00:10:09;8.50;99.90
29713;DHT22;16623;53.632;10.016;2023-02-22T00:12:39;8.50;99.90
29713;DHT22;16623;53.632;10.016;2023-02-22T00:15:05;8.30;99.90
29713;DHT22;16623;53.632;10.016;2023-02-22T00:17:30;8.20;99.90
29713;DHT22;16623;53.632;10.016;2023-02-22T00:19:56;8.10;99.90
29713;DHT22;16623;53.632;10.016;2023-02-22T00:22:22;7.90;99.90
29713;DHT22;16623;53.632;10.016;2023-02-22T00:24:47;7.90;99.90
29713;DHT22;16623;53.632;10.016;2023-02-22T00:27:14;7.80;99.90
29713;DHT22;16623;53.632;10.016;2023-02-22T00:29:44;7.90;99.90
29713;DHT22;16623;53.632;10.016;2023-02-22T00:32:10;7.90;99.90
29713;DHT22;16623;53.632;10.016;2023-02-22T00:34:36;9.00;99.90
29713;DHT22;16623;53.632;10.016;2023-02-22T00:37:01;8.10;99.90
29713;DHT22;16623;53.632;10.016;2023-02-22T00:39:29;8.10;99.90
29713;DHT22;16623;53.632;10.016;2023-02-22T00:41:54;8.10;99.90
29713;DHT22;16623;53.632;10.016;2023-02-22T00:44:20;8.20;99.90
29713;DHT22;16623;53.632;10.016;2023-02-22T00:46:46;8.30;99.90
29713;DHT22;16623;53.632;10.016;2023-02-22T00:49:12;8.30;99.90
29713;DHT22;16623;53.632;10.016;2023-02-22T00:51:37;8.30;99.90
29713;DHT22;16623;53.632;10.016;2023-02-22T00:54:03;8.30;99.90
29713;DHT22;16623;53.632;10.016;2023-02-22T00:56:31;8.30;99.90
29713;DHT22;16623;53.632;10.016;2023-02-22T00:58:58;8.20;99.90
29713;DHT22;16623;53.632;10.016;2023-02-22T01:01:25;8.20;99.90
29713;DHT22;16623;53.632;10.016;2023-02-22T01:03:51;8.30;99.90
29713;DHT22;16623;53.632;10.016;2023-02-22T01:06:20;8.30;99.90
29713;DHT22;16623;53.632;10.016;2023-02-22T01:08:47;8.40;99.90
29713;DHT22;16623;53.632;10.016;2023-02-22T01:11:15;8.40;99.90
29713;DHT22;16623;53.632;10.016;2023-02-22T01:13:40;8.30;99.90
29713;DHT22;16623;53.632;10.016;2023-02-22T01:16:06;8.40;99.90
29713;DHT22;16623;53.632;10.016;2023-02-22T01:18:35;8.40;99.90
29713;DHT22;16623;53.632;10.016;2023-02-22T01:21:04;8.40;99.90
29713;DHT22;16623;53.632;10.016;2023-02-22T01:23:30;8.40;99.90
29713;DHT22;16623;53.632;10.016;2023-02-22T01:25:56;8.40;99.90
29713;DHT22;16623;53.632;10.016;2023-02-22T01:28:22;8.40;99.90
29713;DHT22;16623;53.632;10.016;2023-02-22T01:30:48;8.40;99.90
29713;DHT22;16623;53.632;10.016;2023-02-22T01:33:14;8.30;99.90
29713;DHT22;16623;53.632;10.016;2023-02-22T01:35:42;8.30;99.90
29713;DHT22;16623;53.632;10.016;2023-02-22T01:38:11;8.20;99.90
29713;DHT22;16623;53.632;10.016;2023-02-22T01:40:39;8.20;99.90
29713;DHT22;16623;53.632;10.016;2023-02-22T01:43:28;8.20;99.90
29713;DHT22;16623;53.632;10.016;2023-02-22T01:46:01;8.10;99.90
29713;DHT22;16623;53.632;10.016;2023-02-22T01:51:37;8.10;99.90
29713;DHT22;16623;53.632;10.016;2023-02-22T01:54:10;8.10;99.90
29713;DHT22;16623;53.632;10.016;2023-02-22T01:56:40;8.00;99.90
29713;DHT22;16623;53.632;10.016;2023-02-22T01:59:10;8.10;99.90
29713;DHT22;16623;53.632;10.016;2023-02-22T02:01:38;8.00;99.90
29713;DHT22;16623;53.632;10.016;2023-02-22T02:04:11;8.10;99.90
29713;DHT22;16623;53.632;10.016;2023-02-22T02:06:39;8.00;99.90
29713;DHT22;16623;53.632;10.016;2023-02-22T02:11:39;8.00;99.90
29713;DHT22;16623;53.632;10.016;2023-02-22T02:14:07;7.90;99.90
29713;DHT22;16623;53.632;10.016;2023-02-22T02:16:41;8.00;99.90
29713;DHT22;16623;53.632;10.016;2023-02-22T02:19:17;8.00;99.90
29713;DHT22;16623;53.632;10.016;2023-02-22T02:25:12;7.90;99.90
29713;DHT22;16623;53.632;10.016;2023-02-22T02:33:34;8.10;99.90
29713;DHT22;16623;53.632;10.016;2023-02-22T02:36:18;8.10;99.90
29713;DHT22;16623;53.632;10.016;2023-02-22T02:38:56;8.10;99.90
29713;DHT22;16623;53.632;10.016;2023-02-22T02:41:46;8.10;99.90
29713;DHT22;16623;53.632;10.016;2023-02-22T02:46:50;8.10;99.90
29713;DHT22;16623;53.632;10.016;2023-02-22T02:49:21;8.00;99.90
29713;DHT22;16623;53.632;10.016;2023-02-22T02:51:51;8.10;99.90
29713;DHT22;16623;53.632;10.016;2023-02-22T02:54:19;8.10;99.90
29713;DHT22;16623;53.632;10.016;2023-02-22T02:56:46;8.10;99.90
29713;DHT22;16623;53.632;10.016;2023-02-22T02:59:38;8.00;99.90
29713;DHT22;16623;53.632;10.016;2023-02-22T03:02:18;8.00;99.90
29713;DHT22;16623;53.632;10.016;2023-02-22T03:13:10;7.80;99.90
29713;DHT22;16623;53.632;10.016;2023-02-22T03:18:28;7.90;99.90
29713;DHT22;16623;53.632;10.016;2023-02-22T03:23:36;7.90;99.90
29713;DHT22;16623;53.632;10.016;2023-02-22T03:26:18;7.90;99.90
29713;DHT22;16623;53.632;10.016;2023-02-22T03:28:50;7.90;99.90
29713;DHT22;16623;53.632;10.016;2023-02-22T03:31:28;7.90;99.90
29713;DHT22;16623;53.632;10.016;2023-02-22T03:34:06;7.90;99.90
29713;DHT22;16623;53.632;10.016;2023-02-22T03:36:36;7.90;99.90
29713;DHT22;16623;53.632;10.016;2023-02-22T03:39:08;8.00;99.90
29713;DHT22;16623;53.632;10.016;2023-02-22T03:41:35;7.90;99.90
29713;DHT22;16623;53.632;10.016;2023-02-22T03:44:11;8.00;99.90
29713;DHT22;16623;53.632;10.016;2023-02-22T03:46:39;8.10;99.90
29713;DHT22;16623;53.632;10.016;2023-02-22T03:49:24;8.10;99.90
29713;DHT22;16623;53.632;10.016;2023-02-22T03:51:51;8.10;99.90
29713;DHT22;16623;53.632;10.016;2023-02-22T03:54:17;8.20;99.90
29713;DHT22;16623;53.632;10.016;2023-02-22T03:56:57;8.20;99.90
29713;DHT22;16623;53.632;10.016;2023-02-22T03:59:25;8.20;99.90
29713;DHT22;16623;53.632;10.016;2023-02-22T04:01:56;8.30;99.90
29713;DHT22;16623;53.632;10.016;2023-02-22T04:04:23;8.30;99.90
29713;DHT22;16623;53.632;10.016;2023-02-22T04:06:50;8.30;99.90
29713;DHT22;16623;53.632;10.016;2023-02-22T04:09:16;8.20;99.90
29713;DHT22;16623;53.632;10.016;2023-02-22T04:11:42;8.20;99.90
29713;DHT22;16623;53.632;10.016;2023-02-22T04:14:08;8.30;99.90
29713;DHT22;16623;53.632;10.016;2023-02-22T04:16:33;8.10;99.90
29713;DHT22;16623;53.632;10.016;2023-02-22T04:18:59;8.10;99.90
29713;DHT22;16623;53.632;10.016;2023-02-22T04:21:25;8.10;99.90
29713;DHT22;16623;53.632;10.016;2023-02-22T04:23:50;8.10;99.90
29713;DHT22;16623;53.632;10.016;2023-02-22T04:26:16;8.10;99.90
29713;DHT22;16623;53.632;10.016;2023-02-22T04:28:41;8.20;99.90
29713;DHT22;16623;53.632;10.016;2023-02-22T04:31:07;8.10;99.90
29713;DHT22;16623;53.632;10.016;2023-02-22T04:33:33;8.10;99.90
29713;DHT22;16623;53.632;10.016;2023-02-22T04:35:59;8.00;99.90
29713;DHT22;16623;53.632;10.016;2023-02-22T04:38:25;8.00;99.90
29713;DHT22;16623;53.632;10.016;2023-02-22T04:40:51;8.00;99.90
29713;DHT22;16623;53.632;10.016;2023-02-22T04:43:17;8.00;99.90
29713;DHT22;16623;53.632;10.016;2023-02-22T04:45:43;7.90;99.90
29713;DHT22;16623;53.632;10.016;2023-02-22T04:48:09;7.90;99.90
29713;DHT22;16623;53.632;10.016;2023-02-22T04:50:35;8.00;99.90
29713;DHT22;16623;53.632;10.016;2023-02-22T04:53:01;8.00;99.90
29713;DHT22;16623;53.632;10.016;2023-02-22T04:55:27;8.00;99.90
29713;DHT22;16623;53.632;10.016;2023-02-22T04:57:54;8.10;99.90
29713;DHT22;16623;53.632;10.016;2023-02-22T05:00:20;8.10;99.90
29713;DHT22;16623;53.632;10.016;2023-02-22T05:02:47;8.10;99.90
29713;DHT22;16623;53.632;10.016;2023-02-22T05:05:14;8.20;99.90
29713;DHT22;16623;53.632;10.016;2023-02-22T05:07:40;8.20;99.90
29713;DHT22;16623;53.632;10.016;2023-02-22T05:10:07;8.20;99.90
29713;DHT22;16623;53.632;10.016;2023-02-22T05:12:34;8.10;99.90
29713;DHT22;16623;53.632;10.016;2023-02-22T05:14:59;8.10;99.90
29713;DHT22;16623;53.632;10.016;2023-02-22T05:17:25;8.10;99.90
29713;DHT22;16623;53.632;10.016;2023-02-22T05:19:51;8.10;99.90
29713;DHT22;16623;53.632;10.016;2023-02-22T05:22:16;8.10;99.90
29713;DHT22;16623;53.632;10.016;2023-02-22T05:24:42;8.10;99.90
29713;DHT22;16623;53.632;10.016;2023-02-22T05:27:08;8.20;99.90
29713;DHT22;16623;53.632;10.016;2023-02-22T05:29:34;8.10;99.90
29713;DHT22;16623;53.632;10.016;2023-02-22T05:31:59;8.10;99.90
29713;DHT22;16623;53.632;10.016;2023-02-22T05:34:26;8.20;99.90
29713;DHT22;16623;53.632;10.016;2023-02-22T05:36:52;8.20;99.90
29713;DHT22;16623;53.632;10.016;2023-02-22T05:39:18;8.30;99.90
29713;DHT22;16623;53.632;10.016;2023-02-22T05:41:43;8.30;99.90
29713;DHT22;16623;53.632;10.016;2023-02-22T05:44:09;8.30;99.90
29713;DHT22;16623;53.632;10.016;2023-02-22T05:46:34;8.30;99.90
29713;DHT22;16623;53.632;10.016;2023-02-22T05:49:00;8.30;99.90
29713;DHT22;16623;53.632;10.016;2023-02-22T05:51:26;8.20;99.90
29713;DHT22;16623;53.632;10.016;2023-02-22T05:53:52;8.30;99.90
29713;DHT22;16623;53.632;10.016;2023-02-22T05:56:25;8.30;99.90
29713;DHT22;16623;53.632;10.016;2023-02-22T05:58:50;8.00;99.90
29713;DHT22;16623;53.632;10.016;2023-02-22T06:01:16;8.20;99.90
29713;DHT22;16623;53.632;10.016;2023-02-22T06:03:42;8.10;99.90
29713;DHT22;16623;53.632;10.016;2023-02-22T06:06:07;8.10;99.90
29713;DHT22;16623;53.632;10.016;2023-02-22T06:08:34;8.10;99.90
29713;DHT22;16623;53.632;10.016;2023-02-22T06:11:00;8.20;99.90
29713;DHT22;16623;53.632;10.016;2023-02-22T06:13:25;8.10;99.90
29713;DHT22;16623;53.632;10.016;2023-02-22T06:15:51;8.10;99.90
29713;DHT22;16623;53.632;10.016;2023-02-22T06:18:16;8.20;99.90
29713;DHT22;16623;53.632;10.016;2023-02-22T06:20:42;8.20;99.90
29713;DHT22;16623;53.632;10.016;2023-02-22T06:23:07;8.10;99.90
29713;DHT22;16623;53.632;10.016;2023-02-22T06:25:33;8.10;99.90
29713;DHT22;16623;53.632;10.016;2023-02-22T06:27:59;8.10;99.90
29713;DHT22;16623;53.632;10.016;2023-02-22T06:30:26;8.10;99.90
29713;DHT22;16623;53.632;10.016;2023-02-22T06:32:51;8.20;99.90
29713;DHT22;16623;53.632;10.016;2023-02-22T06:35:17;8.20;99.90
29713;DHT22;16623;53.632;10.016;2023-02-22T06:37:44;8.20;99.90
29713;DHT22;16623;53.632;10.016;2023-02-22T06:40:10;8.30;99.90
29713;DHT22;16623;53.632;10.016;2023-02-22T06:42:36;8.30;99.90
29713;DHT22;16623;53.632;10.016;2023-02-22T06:45:03;8.20;99.90
29713;DHT22;16623;53.632;10.016;2023-02-22T06:47:28;8.30;99.90
29713;DHT22;16623;53.632;10.016;2023-02-22T06:49:55;8.20;99.90
29713;DHT22;16623;53.632;10.016;2023-02-22T06:52:21;8.20;99.90
29713;DHT22;16623;53.632;10.016;2023-02-22T06:54:47;8.30;99.90
29713;DHT22;16623;53.632;10.016;2023-02-22T06:57:13;8.30;99.90
29713;DHT22;16623;53.632;10.016;2023-02-22T06:59:38;8.30;99.90
29713;DHT22;16623;53.632;10.016;2023-02-22T07:02:05;8.40;99.90
29713;DHT22;16623;53.632;10.016;2023-02-22T07:04:30;8.40;99.90
29713;DHT22;16623;53.632;10.016;2023-02-22T07:06:56;8.40;99.90
29713;DHT22;16623;53.632;10.016;2023-02-22T07:09:21;8.40;99.90
29713;DHT22;16623;53.632;10.016;2023-02-22T07:11:47;8.40;99.90
29713;DHT22;16623;53.632;10.016;2023-02-22T07:14:15;8.40;99.90
29713;DHT22;16623;53.632;10.016;2023-02-22T07:16:40;8.50;99.90
29713;DHT22;16623;53.632;10.016;2023-02-22T07:19:06;8.50;99.90
29713;DHT22;16623;53.632;10.016;2023-02-22T07:21:32;8.50;99.90
29713;DHT22;16623;53.632;10.016;2023-02-22T07:23:57;8.60;99.90
29713;DHT22;16623;53.632;10.016;2023-02-22T07:26:25;8.50;99.90
29713;DHT22;16623;53.632;10.016;2023-02-22T07:28:51;8.50;99.90
29713;DHT22;16623;53.632;10.016;2023-02-22T07:31:17;8.50;99.90
29713;DHT22;16623;53.632;10.016;2023-02-22T07:33:44;8.50;99.90
29713;DHT22;16623;53.632;10.016;2023-02-22T07:36:10;8.50;99.90
29713;DHT22;16623;53.632;10.016;2023-02-22T07:38:38;8.50;99.90
29713;DHT22;16623;53.632;10.016;2023-02-22T07:41:03;8.50;99.90
29713;DHT22;16623;53.632;10.016;2023-02-22T07:43:29;8.50;99.90
29713;DHT22;16623;53.632;10.016;2023-02-22T07:45:57;8.60;99.90
29713;DHT22;16623;53.632;10.016;2023-02-22T07:48:25;8.60;99.90
29713;DHT22;16623;53.632;10.016;2023-02-22T07:50:51;8.60;99.90
29713;DHT22;16623;53.632;10.016;2023-02-22T07:53:19;8.50;99.90
29713;DHT22;16623;53.632;10.016;2023-02-22T07:55:46;10.10;99.90
29713;DHT22;16623;53.632;10.016;2023-02-22T07:58:16;8.60;99.90
29713;DHT22;16623;53.632;10.016;2023-02-22T08:00:41;8.50;99.90
29713;DHT22;16623;53.632;10.016;2023-02-22T08:03:13;8.50;99.90
29713;DHT22;16623;53.632;10.016;2023-02-22T08:05:41;8.60;99.90
29713;DHT22;16623;53.632;10.016;2023-02-22T08:08:07;8.60;99.90
29713;DHT22;16623;53.632;10.016;2023-02-22T08:10:33;8.60;99.90
29713;DHT22;16623;53.632;10.016;2023-02-22T08:13:00;8.60;99.90
29713;DHT22;16623;53.632;10.016;2023-02-22T08:15:31;8.60;99.90
29713;DHT22;16623;53.632;10.016;2023-02-22T08:17:59;8.70;99.90
29713;DHT22;16623;53.632;10.016;2023-02-22T08:20:25;8.60;99.90
29713;DHT22;16623;53.632;10.016;2023-02-22T08:22:51;8.70;99.90
29713;DHT22;16623;53.632;10.016;2023-02-22T08:25:19;8.70;99.90
29713;DHT22;16623;53.632;10.016;2023-02-22T08:27:46;8.70;99.90
29713;DHT22;16623;53.632;10.016;2023-02-22T08:30:18;8.70;99.90
29713;DHT22;16623;53.632;10.016;2023-02-22T08:32:46;8.80;99.90
29713;DHT22;16623;53.632;10.016;2023-02-22T08:35:13;8.50;99.90
29713;DHT22;16623;53.632;10.016;2023-02-22T08:37:43;8.70;99.90
29713;DHT22;16623;53.632;10.016;2023-02-22T08:40:09;8.70;99.90
29713;DHT22;16623;53.632;10.016;2023-02-22T08:42:35;8.70;99.90
29713;DHT22;16623;53.632;10.016;2023-02-22T08:45:07;8.80;99.90
29713;DHT22;16623;53.632;10.016;2023-02-22T08:47:34;8.70;99.90
29713;DHT22;16623;53.632;10.016;2023-02-22T08:50:00;8.70;99.90
29713;DHT22;16623;53.632;10.016;2023-02-22T08:52:28;8.80;99.90
29713;DHT22;16623;53.632;10.016;2023-02-22T08:54:54;8.90;99.90
29713;DHT22;16623;53.632;10.016;2023-02-22T08:57:20;9.00;99.90
29713;DHT22;16623;53.632;10.016;2023-02-22T08:59:46;9.00;99.90
29713;DHT22;16623;53.632;10.016;2023-02-22T09:02:16;9.10;99.90
29713;DHT22;16623;53.632;10.016;2023-02-22T09:04:42;9.00;99.90
29713;DHT22;16623;53.632;10.016;2023-02-22T09:07:09;9.10;99.90
29713;DHT22;16623;53.632;10.016;2023-02-22T09:09:35;9.10;99.90
29713;DHT22;16623;53.632;10.016;2023-02-22T09:12:01;9.20;99.90
29713;DHT22;16623;53.632;10.016;2023-02-22T09:14:26;9.20;99.90
29713;DHT22;16623;53.632;10.016;2023-02-22T09:16:52;9.20;99.90
29713;DHT22;16623;53.632;10.016;2023-02-22T09:19:17;9.40;99.90
29713;DHT22;16623;53.632;10.016;2023-02-22T09:21:43;9.50;99.90
29713;DHT22;16623;53.632;10.016;2023-02-22T09:24:08;9.40;99.90
29713;DHT22;16623;53.632;10.016;2023-02-22T09:26:37;9.50;99.90
29713;DHT22;16623;53.632;10.016;2023-02-22T09:29:07;9.60;99.90
29713;DHT22;16623;53.632;10.016;2023-02-22T09:31:37;9.70;99.90
29713;DHT22;16623;53.632;10.016;2023-02-22T09:34:04;9.70;99.90
29713;DHT22;16623;53.632;10.016;2023-02-22T09:36:39;9.60;99.90
29713;DHT22;16623;53.632;10.016;2023-02-22T09:39:04;9.70;99.90
29713;DHT22;16623;53.632;10.016;2023-02-22T09:41:35;9.70;99.90
29713;DHT22;16623;53.632;10.016;2023-02-22T09:44:28;9.70;99.90
29713;DHT22;16623;53.632;10.016;2023-02-22T09:47:00;9.70;99.90
29713;DHT22;16623;53.632;10.016;2023-02-22T09:49:31;9.70;99.90
29713;DHT22;16623;53.632;10.016;2023-02-22T09:57:08;9.80;99.90
29713;DHT22;16623;53.632;10.016;2023-02-22T09:59:39;9.90;99.90
29713;DHT22;16623;53.632;10.016;2023-02-22T10:02:24;9.90;99.90
29713;DHT22;16623;53.632;10.016;2023-02-22T10:05:28;9.80;99.90
29713;DHT22;16623;53.632;10.016;2023-02-22T10:08:03;9.90;99.90
29713;DHT22;16623;53.632;10.016;2023-02-22T10:10:42;9.80;99.90
29713;DHT22;16623;53.632;10.016;2023-02-22T10:16:05;9.80;99.90
29713;DHT22;16623;53.632;10.016;2023-02-22T10:21:47;9.60;99.90
29713;DHT22;16623;53.632;10.016;2023-02-22T10:24:37;9.70;99.90
29713;DHT22;16623;53.632;10.016;2023-02-22T10:27:18;9.80;99.90
29713;DHT22;16623;53.632;10.016;2023-02-22T10:29:56;9.90;99.90
29713;DHT22;16623;53.632;10.016;2023-02-22T10:32:30;9.80;99.90
29713;DHT22;16623;53.632;10.016;2023-02-22T10:34:57;9.90;99.90
29713;DHT22;16623;53.632;10.016;2023-02-22T10:37:28;9.90;99.90
29713;DHT22;16623;53.632;10.016;2023-02-22T10:40:13;10.00;99.90
29713;DHT22;16623;53.632;10.016;2023-02-22T10:42:43;10.00;99.90
29713;DHT22;16623;53.632;10.016;2023-02-22T10:45:23;10.00;99.90
29713;DHT22;16623;53.632;10.016;2023-02-22T10:47:50;10.10;99.90
29713;DHT22;16623;53.632;10.016;2023-02-22T10:50:19;10.10;99.90
29713;DHT22;16623;53.632;10.016;2023-02-22T10:52:45;10.20;99.90
29713;DHT22;16623;53.632;10.016;2023-02-22T10:55:13;10.30;99.90
29713;DHT22;16623;53.632;10.016;2023-02-22T10:57:40;10.30;99.90
29713;DHT22;16623;53.632;10.016;2023-02-22T11:00:29;10.30;99.90
29713;DHT22;16623;53.632;10.016;2023-02-22T11:03:00;10.30;99.90
29713;DHT22;16623;53.632;10.016;2023-02-22T11:05:38;10.30;99.90
29713;DHT22;16623;53.632;10.016;2023-02-22T11:10:45;10.30;99.90
29713;DHT22;16623;53.632;10.016;2023-02-22T11:13:36;10.40;99.90
29713;DHT22;16623;53.632;10.016;2023-02-22T11:16:40;10.30;99.90
29713;DHT22;16623;53.632;10.016;2023-02-22T11:19:27;10.40;99.90
29713;DHT22;16623;53.632;10.016;2023-02-22T11:22:10;10.40;99.90
29713;DHT22;16623;53.632;10.016;2023-02-22T11:24:52;10.40;99.90
29713;DHT22;16623;53.632;10.016;2023-02-22T11:27:33;10.40;99.90
29713;DHT22;16623;53.632;10.016;2023-02-22T11:32:57;10.60;99.90
29713;DHT22;16623;53.632;10.016;2023-02-22T11:35:56;10.60;99.90
29713;DHT22;16623;53.632;10.016;2023-02-22T11:38:33;10.70;99.90
29713;DHT22;16623;53.632;10.016;2023-02-22T11:41:13;10.90;99.90
29713;DHT22;16623;53.632;10.016;2023-02-22T11:43:40;11.00;99.90
29713;DHT22;16623;53.632;10.016;2023-02-22T11:46:18;11.20;99.90
29713;DHT22;16623;53.632;10.016;2023-02-22T11:48:57;11.40;99.90
29713;DHT22;16623;53.632;10.016;2023-02-22T11:51:59;11.50;99.90
29713;DHT22;16623;53.632;10.016;2023-02-22T11:54:45;11.70;99.90
29713;DHT22;16623;53.632;10.016;2023-02-22T11:57:32;11.90;99.90
29713;DHT22;16623;53.632;10.016;2023-02-22T12:00:26;12.10;99.90
29713;DHT22;16623;53.632;10.016;2023-02-22T12:03:05;12.10;99.90
29713;DHT22;16623;53.632;10.016;2023-02-22T12:05:59;12.20;99.90
29713;DHT22;16623;53.632;10.016;2023-02-22T12:11:22;12.10;99.90
29713;DHT22;16623;53.632;10.016;2023-02-22T12:14:14;12.10;99.90
29713;DHT22;16623;53.632;10.016;2023-02-22T12:17:15;12.10;99.90
29713;DHT22;16623;53.632;10.016;2023-02-22T12:19:48;12.10;99.90
29713;DHT22;16623;53.632;10.016;2023-02-22T12:24:52;12.20;99.90
29713;DHT22;16623;53.632;10.016;2023-02-22T12:27:25;12.20;99.90
29713;DHT22;16623;53.632;10.016;2023-02-22T12:30:00;12.30;99.90
29713;DHT22;16623;53.632;10.016;2023-02-22T12:33:20;12.30;99.90
29713;DHT22;16623;53.632;10.016;2023-02-22T12:35:32;12.40;99.90
29713;DHT22;16623;53.632;10.016;2023-02-22T12:38:10;12.30;99.90
29713;DHT22;16623;53.632;10.016;2023-02-22T12:43:40;12.30;99.90
29713;DHT22;16623;53.632;10.016;2023-02-22T12:46:17;12.40;99.90
29713;DHT22;16623;53.632;10.016;2023-02-22T12:49:00;12.40;99.90
29713;DHT22;16623;53.632;10.016;2023-02-22T12:51:53;12.50;99.90
29713;DHT22;16623;53.632;10.016;2023-02-22T12:57:37;12.50;99.90
29713;DHT22;16623;53.632;10.016;2023-02-22T13:00:20;12.70;99.90
29713;DHT22;16623;53.632;10.016;2023-02-22T13:03:00;12.50;99.90
29713;DHT22;16623;53.632;10.016;2023-02-22T13:05:30;12.50;99.90
29713;DHT22;16623;53.632;10.016;2023-02-22T13:10:51;12.60;99.90
29713;DHT22;16623;53.632;10.016;2023-02-22T13:19:16;12.50;99.90
29713;DHT22;16623;53.632;10.016;2023-02-22T13:25:23;12.50;99.90
29713;DHT22;16623;53.632;10.016;2023-02-22T13:28:01;12.40;99.90
29713;DHT22;16623;53.632;10.016;2023-02-22T13:42:19;12.30;99.90
29713;DHT22;16623;53.632;10.016;2023-02-22T13:48:31;12.20;99.90
29713;DHT22;16623;53.632;10.016;2023-02-22T13:51:05;12.30;99.90
29713;DHT22;16623;53.632;10.016;2023-02-22T13:53:52;12.30;99.90
29713;DHT22;16623;53.632;10.016;2023-02-22T13:56:21;12.40;99.90
29713;DHT22;16623;53.632;10.016;2023-02-22T13:58:59;12.30;99.90
29713;DHT22;16623;53.632;10.016;2023-02-22T14:01:40;12.20;99.90
29713;DHT22;16623;53.632;10.016;2023-02-22T14:06:58;12.00;99.90
29713;DHT22;16623;53.632;10.016;2023-02-22T14:17:58;12.00;99.90
29713;DHT22;16623;53.632;10.016;2023-02-22T14:25:51;12.00;99.90
29713;DHT22;16623;53.632;10.016;2023-02-22T14:31:29;12.00;99.90
29713;DHT22;16623;53.632;10.016;2023-02-22T14:36:32;12.00;99.90
29713;DHT22;16623;53.632;10.016;2023-02-22T14:39:07;12.00;99.90
29713;DHT22;16623;53.632;10.016;2023-02-22T14:41:37;11.90;99.90
29713;DHT22;16623;53.632;10.016;2023-02-22T14:44:03;11.80;99.90
29713;DHT22;16623;53.632;10.016;2023-02-22T14:46:33;11.80;99.90
29713;DHT22;16623;53.632;10.016;2023-02-22T14:49:04;11.80;99.90
29713;DHT22;16623;53.632;10.016;2023-02-22T14:51:41;11.70;99.90
29713;DHT22;16623;53.632;10.016;2023-02-22T14:57:08;11.60;99.90
29713;DHT22;16623;53.632;10.016;2023-02-22T15:02:18;11.60;99.90
29713;DHT22;16623;53.632;10.016;2023-02-22T15:04:54;11.60;99.90
29713;DHT22;16623;53.632;10.016;2023-02-22T15:07:21;11.50;99.90
29713;DHT22;16623;53.632;10.016;2023-02-22T15:10:04;11.50;99.90
29713;DHT22;16623;53.632;10.016;2023-02-22T15:12:30;11.40;99.90
29713;DHT22;16623;53.632;10.016;2023-02-22T15:15:31;11.50;99.90
29713;DHT22;16623;53.632;10.016;2023-02-22T15:17:56;11.30;99.90
29713;DHT22;16623;53.632;10.016;2023-02-22T15:20:23;11.20;99.90
29713;DHT22;16623;53.632;10.016;2023-02-22T15:22:50;11.20;99.90
29713;DHT22;16623;53.632;10.016;2023-02-22T15:25:24;11.20;99.90
29713;DHT22;16623;53.632;10.016;2023-02-22T15:27:52;11.20;99.90
29713;DHT22;16623;53.632;10.016;2023-02-22T15:30:26;11.20;99.90
29713;DHT22;16623;53.632;10.016;2023-02-22T15:32:52;11.20;99.90
29713;DHT22;16623;53.632;10.016;2023-02-22T15:38:14;11.10;99.90
29713;DHT22;16623;53.632;10.016;2023-02-22T15:40:41;11.10;99.90
29713;DHT22;16623;53.632;10.016;2023-02-22T15:43:21;11.00;99.90
29713;DHT22;16623;53.632;10.016;2023-02-22T15:45:49;11.00;99.90
29713;DHT22;16623;53.632;10.016;2023-02-22T15:48:15;11.00;99.90
29713;DHT22;16623;53.632;10.016;2023-02-22T15:51:00;10.90;99.90
29713;DHT22;16623;53.632;10.016;2023-02-22T15:53:43;10.90;99.90
29713;DHT22;16623;53.632;10.016;2023-02-22T15:56:28;10.90;99.90
29713;DHT22;16623;53.632;10.016;2023-02-22T15:58:58;10.80;99.90
29713;DHT22;16623;53.632;10.016;2023-02-22T16:01:25;10.90;99.90
29713;DHT22;16623;53.632;10.016;2023-02-22T16:03:54;10.80;99.90
29713;DHT22;16623;53.632;10.016;2023-02-22T16:06:27;10.90;99.90
29713;DHT22;16623;53.632;10.016;2023-02-22T16:08:55;10.80;99.90
29713;DHT22;16623;53.632;10.016;2023-02-22T16:11:28;10.90;99.90
29713;DHT22;16623;53.632;10.016;2023-02-22T16:14:04;10.90;99.90
29713;DHT22;16623;53.632;10.016;2023-02-22T16:16:37;10.80;99.90
29713;DHT22;16623;53.632;10.016;2023-02-22T16:19:27;10.80;99.90
29713;DHT22;16623;53.632;10.016;2023-02-22T16:22:03;10.80;99.90
29713;DHT22;16623;53.632;10.016;2023-02-22T16:24:32;10.80;99.90
29713;DHT22;16623;53.632;10.016;2023-02-22T16:27:18;10.70;99.90
29713;DHT22;16623;53.632;10.016;2023-02-22T16:30:00;10.70;99.90
29713;DHT22;16623;53.632;10.016;2023-02-22T16:32:26;10.70;99.90
29713;DHT22;16623;53.632;10.016;2023-02-22T16:34:52;10.70;99.90
29713;DHT22;16623;53.632;10.016;2023-02-22T16:37:21;10.70;99.90
29713;DHT22;16623;53.632;10.016;2023-02-22T16:39:47;10.60;99.90
29713;DHT22;16623;53.632;10.016;2023-02-22T16:42:16;10.60;99.90
29713;DHT22;16623;53.632;10.016;2023-02-22T16:44:52;10.60;99.90
29713;DHT22;16623;53.632;10.016;2023-02-22T16:47:18;10.60;99.90
29713;DHT22;16623;53.632;10.016;2023-02-22T16:49:47;10.50;99.90
29713;DHT22;16623;53.632;10.016;2023-02-22T16:52:13;10.50;99.90
29713;DHT22;16623;53.632;10.016;2023-02-22T16:54:44;10.50;99.90
29713;DHT22;16623;53.632;10.016;2023-02-22T16:57:19;10.40;99.90
29713;DHT22;16623;53.632;10.016;2023-02-22T16:59:45;10.40;99.90
29713;DHT22;16623;53.632;10.016;2023-02-22T17:02:17;10.40;99.90
29713;DHT22;16623;53.632;10.016;2023-02-22T17:04:43;10.40;99.90
29713;DHT22;16623;53.632;10.016;2023-02-22T17:07:22;10.40;99.90
29713;DHT22;16623;53.632;10.016;2023-02-22T17:09:48;10.40;99.90
29713;DHT22;16623;53.632;10.016;2023-02-22T17:12:15;10.30;99.90
29713;DHT22;16623;53.632;10.016;2023-02-22T17:14:44;10.30;99.90
29713;DHT22;16623;53.632;10.016;2023-02-22T17:17:11;10.30;99.90
29713;DHT22;16623;53.632;10.016;2023-02-22T17:19:37;10.40;99.90
29713;DHT22;16623;53.632;10.016;2023-02-22T17:22:02;10.30;99.90
29713;DHT22;16623;53.632;10.016;2023-02-22T17:24:31;10.30;99.90
29713;DHT22;16623;53.632;10.016;2023-02-22T17:26:58;10.30;99.90
29713;DHT22;16623;53.632;10.016;2023-02-22T17:29:24;10.30;99.90
29713;DHT22;16623;53.632;10.016;2023-02-22T17:31:52;10.30;99.90
29713;DHT22;16623;53.632;10.016;2023-02-22T17:34:18;10.30;99.90
29713;DHT22;16623;53.632;10.016;2023-02-22T17:36:44;10.30;99.90
29713;DHT22;16623;53.632;10.016;2023-02-22T17:39:10;10.30;99.90
29713;DHT22;16623;53.632;10.016;2023-02-22T17:41:36;10.30;99.90
29713;DHT22;16623;53.632;10.016;2023-02-22T17:44:03;10.40;99.90